Time;durP1;ratioP1;P1;durP2;ratioP2;P2;SDS_P1;SDS_P2;PMS_P1;PMS_P2;Temp;Humidity;BMP_temperature;BMP_pressure;BME280_temperature;BME280_humidity;BME280_pressure;Samples;Min_cycle;Max_cycle;Signal;HPM_P1;HPM_P2
2021/01/18 00:03:39;;;;;;;154.07;51.73;;;;;;;-9.89;74.60;101287.80;3698378;78;34997;-92
2021/01/18 00:08:40;;;;;;;144.93;55.97;;;;;;;-9.99;74.35;101296.83;3688356;77;98769;-92
2021/01/18 00:13:45;;;;;;;142.47;50.67;;;;;;;-10.02;74.41;101290.13;3727497;77;35489;-91
2021/01/18 00:18:46;;;;;;;153.30;56.13;;;;;;;-10.08;74.48;101287.02;3725066;77;99051;-91
2021/01/18 00:23:52;;;;;;;176.30;64.30;;;;;;;-10.10;74.76;101284.28;3745662;77;34991;-91
2021/01/18 00:28:53;;;;;;;155.80;55.95;;;;;;;-10.20;75.53;101270.17;3744020;77;99390;-92
2021/01/18 00:33:54;;;;;;;156.93;56.53;;;;;;;-10.25;76.04;101273.21;3750853;77;35045;-91
2021/01/18 00:38:55;;;;;;;158.63;55.70;;;;;;;-10.33;76.19;101262.84;3740026;77;99212;-91
2021/01/18 00:43:56;;;;;;;150.87;55.83;;;;;;;-10.37;76.37;101256.36;3751212;75;35056;-90
2021/01/18 00:48:57;;;;;;;161.10;54.07;;;;;;;-10.43;76.10;101255.88;3752106;75;99324;-90
2021/01/18 00:53:58;;;;;;;141.70;53.03;;;;;;;-10.52;76.70;101255.36;3744103;77;33702;-91
2021/01/18 00:58:59;;;;;;;152.37;54.87;;;;;;;-10.55;76.38;101259.80;3738640;77;98999;-89
2021/01/18 01:04:00;;;;;;;155.87;58.13;;;;;;;-10.67;76.35;101254.09;3748903;77;32414;-90
2021/01/18 01:09:03;;;;;;;180.65;59.30;;;;;;;-10.76;76.83;101254.05;3736490;77;99271;-91
2021/01/18 01:14:04;;;;;;;170.70;56.20;;;;;;;-10.77;76.48;101249.78;3740346;77;35033;-90
2021/01/18 01:19:05;;;;;;;184.13;61.40;;;;;;;-10.71;76.93;101250.23;3742962;77;99204;-91
2021/01/18 01:24:07;;;;;;;167.37;54.23;;;;;;;-10.74;76.61;101247.49;3749062;76;34972;-90
2021/01/18 01:29:08;;;;;;;171.33;57.63;;;;;;;-10.82;76.48;101239.81;3735499;77;99402;-91
2021/01/18 01:34:08;;;;;;;158.53;56.03;;;;;;;-10.87;77.50;101236.16;3761774;76;35513;-91
2021/01/18 01:39:10;;;;;;;170.63;56.10;;;;;;;-10.87;77.18;101240.97;3737931;77;99179;-91
2021/01/18 01:44:11;;;;;;;167.37;53.97;;;;;;;-10.84;76.89;101248.50;3743881;77;32159;-90
2021/01/18 01:49:12;;;;;;;162.80;55.87;;;;;;;-10.76;76.55;101240.77;3732089;77;99393;-93
2021/01/18 01:54:14;;;;;;;158.80;53.00;;;;;;;-10.71;76.96;101238.27;3758937;77;31214;-92
2021/01/18 01:59:16;;;;;;;155.95;51.40;;;;;;;-10.76;76.72;101228.30;3743198;77;99341;-90
2021/01/18 02:04:17;;;;;;;150.83;53.07;;;;;;;-10.87;76.53;101234.33;3752675;77;33088;-92
2021/01/18 02:09:18;;;;;;;158.17;52.93;;;;;;;-10.92;77.62;101248.78;3751157;77;98930;-91
2021/01/18 02:14:30;;;;;;;142.72;46.55;;;;;;;-10.86;77.46;101232.50;3743882;77;32789;-90
2021/01/18 02:19:48;;;;;;;131.33;45.63;;;;;;;-10.82;77.57;101237.15;3744975;77;99270;-91
2021/01/18 02:25:07;;;;;;;123.53;45.33;;;;;;;-10.85;77.72;101234.12;3760998;77;33280;-92
2021/01/18 02:30:55;;;;;;;124.23;43.13;;;;;;;-10.80;77.62;101227.63;3714016;77;98702;-93
2021/01/18 02:36:24;;;;;;;129.63;47.30;;;;;;;-10.86;77.12;101220.00;3690557;78;32804;-91
2021/01/18 02:41:35;;;;;;;141.50;48.27;;;;;;;-10.82;77.84;101223.03;3682729;77;98946;-90
2021/01/18 02:46:38;;;;;;;136.27;46.97;;;;;;;-10.78;77.92;101218.41;3667533;78;32650;-92
2021/01/18 02:51:45;;;;;;;145.93;53.93;;;;;;;-10.96;77.85;101209.58;3678432;78;98973;-91
2021/01/18 02:56:52;;;;;;;141.67;46.63;;;;;;;-11.00;77.75;101213.19;3694478;77;33171;-92
2021/01/18 03:02:37;;;;;;;147.00;48.13;;;;;;;-11.09;77.71;101209.17;3679567;77;99094;-91
2021/01/18 03:08:10;;;;;;;147.97;49.80;;;;;;;-11.19;78.18;101204.03;3694678;77;99386;-91
2021/01/18 03:13:32;;;;;;;180.03;59.83;;;;;;;-11.20;77.39;101202.41;3703854;78;33234;-91
2021/01/18 03:18:35;;;;;;;171.62;55.80;;;;;;;-11.16;77.74;101197.80;3679677;78;99360;-90
2021/01/18 03:23:41;;;;;;;179.07;62.83;;;;;;;-11.22;77.47;101193.85;3701057;77;33151;-90
2021/01/18 03:28:41;;;;;;;;;;;;;;;-11.29;77.46;101189.91;3700717;77;99612;-92
2021/01/18 03:33:42;;;;;;;166.37;56.23;;;;;;;-11.32;77.97;101198.33;3739965;77;32753;-90
2021/01/18 03:38:43;;;;;;;155.23;53.10;;;;;;;-11.33;78.10;101197.21;3730269;77;99278;-92
2021/01/18 03:43:44;;;;;;;169.53;54.00;;;;;;;-11.37;77.67;101189.37;3672504;78;32885;-92
2021/01/18 03:48:45;;;;;;;161.77;52.70;;;;;;;-11.29;78.55;101181.94;3675854;77;99400;-91
2021/01/18 03:53:46;;;;;;;151.70;52.20;;;;;;;-11.13;77.85;101183.27;3715597;77;32051;-91
2021/01/18 03:58:47;;;;;;;159.97;54.03;;;;;;;-11.12;77.55;101191.53;3713604;77;99163;-91
2021/01/18 04:03:48;;;;;;;136.93;47.03;;;;;;;-11.05;78.03;101202.40;3711910;77;28934;-91
2021/01/18 04:08:49;;;;;;;159.33;50.57;;;;;;;-10.98;77.23;101195.17;3714667;77;99231;-90
2021/01/18 04:13:50;;;;;;;160.03;55.47;;;;;;;-10.97;77.31;101192.02;3718402;77;26288;-91
2021/01/18 04:18:51;;;;;;;145.10;51.23;;;;;;;-11.02;77.67;101183.88;3701283;77;99172;-90
2021/01/18 04:23:52;;;;;;;147.87;53.10;;;;;;;-11.05;76.95;101173.17;3718388;77;26410;-91
2021/01/18 04:28:53;;;;;;;162.70;55.03;;;;;;;-11.12;77.99;101171.06;3705050;77;99203;-92
2021/01/18 04:33:54;;;;;;;266.57;103.00;;;;;;;-11.23;76.73;101172.31;3704377;77;26764;-91
2021/01/18 04:38:55;;;;;;;203.97;69.40;;;;;;;-11.22;78.01;101174.75;3709310;77;99613;-90
2021/01/18 04:43:56;;;;;;;165.60;59.13;;;;;;;-11.19;77.24;101165.00;3720072;77;25999;-90
2021/01/18 04:49:01;;;;;;;183.13;62.20;;;;;;;-11.28;77.30;101156.20;3703367;77;99431;-89
2021/01/18 04:54:07;;;;;;;185.03;65.47;;;;;;;-11.38;77.97;101163.34;3664459;77;27449;-91
2021/01/18 04:59:13;;;;;;;178.63;61.73;;;;;;;-11.39;77.91;101169.66;3655101;78;99252;-91
2021/01/18 05:04:25;;;;;;;163.12;60.48;;;;;;;-11.41;77.57;101174.38;3657470;78;28208;-91
2021/01/18 05:09:29;;;;;;;169.67;57.27;;;;;;;-11.31;77.14;101168.58;3663415;78;99033;-91
2021/01/18 05:14:30;;;;;;;200.17;61.83;;;;;;;-11.26;77.40;101170.90;3704062;78;27656;-90
2021/01/18 05:19:32;;;;;;;202.23;69.73;;;;;;;-11.25;77.52;101164.55;3682163;78;99184;-90
2021/01/18 05:24:32;;;;;;;193.73;63.13;;;;;;;-11.12;78.04;101165.75;3706103;77;26134;-90
2021/01/18 05:29:37;;;;;;;211.30;68.15;;;;;;;-11.18;76.95;101154.67;3694547;78;99006;-91
2021/01/18 05:34:38;;;;;;;184.03;64.73;;;;;;;-11.20;76.82;101148.77;3707964;78;27595;-91
2021/01/18 05:39:39;;;;;;;243.17;87.50;;;;;;;-11.29;77.50;101159.36;3687045;78;99268;-90
2021/01/18 05:44:40;;;;;;;201.62;70.03;;;;;;;-11.37;77.66;101157.49;3707529;78;26174;-90
2021/01/18 05:49:46;;;;;;;185.77;69.67;;;;;;;-11.43;77.94;101145.09;3691698;78;99257;-90
2021/01/18 05:54:47;;;;;;;181.02;65.10;;;;;;;-11.40;77.90;101138.03;3712658;77;27487;-90
2021/01/18 05:59:51;;;;;;;197.43;66.90;;;;;;;-11.41;78.09;101137.20;3667330;77;99006;-91
2021/01/18 06:04:52;;;;;;;167.53;55.67;;;;;;;-11.36;78.18;101142.68;3657506;79;27631;-90
2021/01/18 06:09:53;;;;;;;166.00;56.63;;;;;;;-11.42;77.83;101144.88;3675721;77;99228;-90
2021/01/18 06:15:14;;;;;;;176.43;58.63;;;;;;;-11.49;78.42;101142.80;3724761;77;26728;-91
2021/01/18 06:20:22;;;;;;;166.40;58.20;;;;;;;-11.31;78.80;101144.17;3740296;75;98982;-91
2021/01/18 06:25:26;;;;;;;179.47;60.37;;;;;;;-11.37;77.53;101132.27;3733017;77;28717;-90
2021/01/18 06:30:32;;;;;;;212.55;63.02;;;;;;;-11.40;78.23;101134.05;3718099;77;99687;-91
2021/01/18 06:35:33;;;;;;;208.90;70.03;;;;;;;-11.59;77.49;101135.86;3737179;77;27589;-94
2021/01/18 06:40:41;;;;;;;191.37;70.50;;;;;;;-11.50;79.04;101132.39;3725222;76;99390;-93
2021/01/18 06:45:42;;;;;;;190.43;65.53;;;;;;;-11.41;78.29;101125.75;3730611;77;27686;-94
2021/01/18 06:50:43;;;;;;;180.13;60.27;;;;;;;-11.29;78.66;101136.78;3732285;77;99234;-93
2021/01/18 06:56:21;;;;;;;161.13;56.20;;;;;;;-11.20;79.04;101135.48;3741321;77;26210;-93
2021/01/18 07:01:38;;;;;;;185.57;65.40;;;;;;;-11.33;77.88;101138.78;3731704;77;99048;-94
2021/01/18 07:06:42;;;;;;;191.13;69.57;;;;;;;-11.31;78.97;101136.20;3738092;75;27505;-95
2021/01/18 07:11:43;;;;;;;193.37;69.43;;;;;;;-11.19;79.06;101142.42;3729248;77;99367;-95
2021/01/18 07:16:47;;;;;;;184.27;64.93;;;;;;;-11.08;79.17;101144.36;3537631;75;57287;-76
2021/01/18 07:22:29;;;;;;;205.27;71.00;;;;;;;-11.03;78.92;101145.02;3532857;80;99113;-77
2021/01/18 07:27:35;;;;;;;238.40;73.33;;;;;;;-10.96;78.74;101151.11;3499871;82;27557;-77
2021/01/18 07:32:37;;;;;;;159.97;56.97;;;;;;;-10.83;79.27;101152.30;3632560;79;27527;-76
2021/01/18 07:37:38;;;;;;;180.83;62.60;;;;;;;-10.77;78.62;101152.73;3635782;79;106676;-77
2021/01/18 07:42:42;;;;;;;196.63;66.80;;;;;;;-10.74;78.43;101160.29;3635765;79;26433;-77
2021/01/18 07:48:04;;;;;;;184.90;64.93;;;;;;;-10.62;78.90;101155.34;3632808;79;99347;-76
2021/01/18 07:53:11;;;;;;;173.97;59.97;;;;;;;-10.58;78.90;101159.70;3643647;78;27505;-77
2021/01/18 07:58:20;;;;;;;152.50;57.40;;;;;;;-10.44;78.47;101168.64;3638216;79;99181;-76
2021/01/18 08:03:24;;;;;;;176.93;61.00;;;;;;;-10.44;78.41;101166.48;3634151;79;27459;-76
2021/01/18 08:08:29;;;;;;;180.77;60.50;;;;;;;-10.41;78.45;101153.55;3632630;79;99213;-77
2021/01/18 08:13:47;;;;;;;156.00;55.13;;;;;;;-10.24;78.74;101153.77;3641839;77;27574;-77
2021/01/18 08:18:59;;;;;;;169.00;55.60;;;;;;;-10.12;78.76;101148.80;3745325;76;99454;-77
2021/01/18 08:24:06;;;;;;;158.47;56.57;;;;;;;-10.00;78.64;101160.27;3759009;77;27493;-77
2021/01/18 08:29:29;;;;;;;164.80;60.83;;;;;;;-9.79;78.74;101149.63;3755761;76;98996;-78
2021/01/18 08:34:35;;;;;;;149.13;55.23;;;;;;;-9.56;78.63;101150.50;3758454;76;27532;-77
2021/01/18 08:39:38;;;;;;;163.32;57.05;;;;;;;-9.32;78.88;101141.50;3752972;76;98640;-77
2021/01/18 08:44:39;;;;;;;167.33;56.80;;;;;;;-9.06;78.63;101152.27;3724894;77;27425;-77
2021/01/18 08:49:41;;;;;;;139.77;51.70;;;;;;;-8.98;78.39;101143.39;3749121;76;99110;-77
2021/01/18 08:54:42;;;;;;;157.37;56.10;;;;;;;-8.94;77.69;101151.73;3761090;76;26519;-77
2021/01/18 08:59:44;;;;;;;159.47;52.97;;;;;;;-8.82;77.62;101144.03;3759916;76;98595;-77
2021/01/18 09:04:45;;;;;;;161.57;57.70;;;;;;;-8.82;77.48;101143.20;3757458;76;25919;-77
2021/01/18 09:09:45;;;;;;;149.17;47.50;;;;;;;-8.73;77.25;101141.81;3733469;76;99226;-78
2021/01/18 09:14:46;;;;;;;143.63;55.87;;;;;;;-8.69;77.49;101126.43;3754328;77;25550;-77
2021/01/18 09:19:54;;;;;;;164.23;58.20;;;;;;;-8.59;77.74;101131.98;3753658;76;98613;-78
2021/01/18 09:24:56;;;;;;;157.47;58.20;;;;;;;-8.35;78.14;101136.75;3757952;76;28724;-78
2021/01/18 09:30:07;;;;;;;145.35;53.42;;;;;;;-8.19;77.65;101128.77;3755333;77;98732;-78
2021/01/18 09:35:14;;;;;;;156.83;58.77;;;;;;;-8.09;76.79;101129.47;3765079;76;27571;-78
2021/01/18 09:40:15;;;;;;;;;;;;;;;-8.08;76.49;101127.91;3761034;76;98929;-79
2021/01/18 09:45:17;;;;;;;173.97;62.23;;;;;;;-8.03;77.45;101115.16;3760923;77;27494;-77
2021/01/18 09:50:21;;;;;;;175.73;63.13;;;;;;;-7.81;77.56;101117.47;3748646;76;98986;-76
2021/01/18 09:55:46;;;;;;;153.07;58.83;;;;;;;-7.78;77.42;101120.98;3749497;76;28294;-77
2021/01/18 10:00:49;;;;;;;154.60;57.93;;;;;;;-7.69;77.13;101120.88;3745535;76;98997;-77
2021/01/18 10:05:52;;;;;;;162.07;60.30;;;;;;;-7.57;77.54;101111.75;3748614;77;28373;-77
2021/01/18 10:10:53;;;;;;;155.20;58.63;;;;;;;-7.34;77.86;101097.41;3747115;76;98961;-76
2021/01/18 10:15:57;;;;;;;164.30;59.60;;;;;;;-7.04;77.39;101108.58;3760189;77;26226;-78
2021/01/18 10:21:00;;;;;;;149.50;62.30;;;;;;;-6.93;77.55;101093.75;3761584;76;98602;-78
2021/01/18 10:26:20;;;;;;;146.10;59.13;;;;;;;-6.73;77.35;101091.88;3770525;77;28304;-78
2021/01/18 10:31:30;;;;;;;153.80;61.13;;;;;;;-6.58;77.11;101094.23;3759585;76;98522;-78
2021/01/18 10:36:32;;;;;;;153.97;59.47;;;;;;;-6.52;77.11;101085.20;3768127;76;28427;-78
2021/01/18 10:41:35;;;;;;;153.03;63.10;;;;;;;-6.41;76.98;101077.58;3766306;77;98474;-77
2021/01/18 10:46:36;;;;;;;155.07;56.93;;;;;;;-6.31;76.49;101083.57;3759060;77;27640;-76
2021/01/18 10:51:37;;;;;;;151.80;59.07;;;;;;;-6.26;76.78;101083.11;3765925;76;98438;-76
2021/01/18 10:56:39;;;;;;;161.47;60.37;;;;;;;-6.10;76.93;101077.37;3762570;77;26494;-77
2021/01/18 11:01:59;;;;;;;159.50;58.50;;;;;;;-6.12;76.20;101064.23;3754589;77;98702;-78
2021/01/18 11:07:00;;;;;;;173.60;68.10;;;;;;;-6.04;76.00;101065.65;3764882;77;27450;-77
2021/01/18 11:12:04;;;;;;;176.23;63.73;;;;;;;-6.00;76.27;101062.20;3765697;76;98795;-77
2021/01/18 11:17:08;;;;;;;150.27;59.90;;;;;;;-6.00;76.21;101055.50;3719090;77;29041;-78
2021/01/18 11:22:09;;;;;;;157.85;61.18;;;;;;;-6.17;75.60;101048.65;3668338;77;98446;-78
2021/01/18 11:27:10;;;;;;;174.87;63.03;;;;;;;-6.15;77.47;101040.64;3673273;78;26078;-78
2021/01/18 11:32:12;;;;;;;167.37;66.97;;;;;;;-6.07;76.62;101036.67;3667869;79;99062;-78
2021/01/18 11:37:13;;;;;;;163.37;65.90;;;;;;;-6.09;76.10;101031.59;3681101;78;26275;-79
2021/01/18 11:42:14;;;;;;;158.23;62.30;;;;;;;-5.97;76.94;101038.94;3675217;78;98964;-79
2021/01/18 11:47:16;;;;;;;153.27;62.97;;;;;;;-5.85;76.45;101019.47;3676713;79;25925;-78
2021/01/18 11:52:17;;;;;;;138.37;51.03;;;;;;;-5.74;76.73;101014.44;3665545;79;98781;-76
2021/01/18 11:57:18;;;;;;;150.90;56.13;;;;;;;-5.68;75.63;101006.72;3678245;78;25941;-77
2021/01/18 12:02:20;;;;;;;151.40;55.60;;;;;;;-5.64;76.64;101013.70;3670944;79;98477;-78
2021/01/18 12:07:21;;;;;;;153.07;57.77;;;;;;;-5.56;76.40;101008.67;3679202;77;26474;-77
2021/01/18 12:12:23;;;;;;;139.53;53.00;;;;;;;-5.50;76.36;101006.34;3670214;78;99042;-78
2021/01/18 12:17:24;;;;;;;129.37;52.73;;;;;;;-5.29;76.13;100996.54;3715004;77;27522;-76
2021/01/18 12:22:26;;;;;;;140.63;55.93;;;;;;;-5.41;75.96;100997.27;3740853;76;98945;-78
2021/01/18 12:27:27;;;;;;;134.87;54.33;;;;;;;-5.30;76.15;100992.25;3751603;76;26065;-77
2021/01/18 12:32:28;;;;;;;130.73;51.97;;;;;;;-5.20;75.84;100990.41;3746922;76;98305;-75
2021/01/18 12:37:30;;;;;;;132.30;55.50;;;;;;;-5.06;75.65;100978.69;3756271;75;26061;-76
2021/01/18 12:42:31;;;;;;;139.23;52.23;;;;;;;-4.95;75.61;100977.14;3750777;76;98260;-77
2021/01/18 12:47:33;;;;;;;139.60;57.00;;;;;;;-4.96;75.76;100959.95;3749303;77;25885;-75
2021/01/18 12:52:36;;;;;;;127.53;54.67;;;;;;;-4.81;75.54;100959.46;3752165;75;98294;-77
2021/01/18 12:57:38;;;;;;;145.07;59.87;;;;;;;-4.86;75.04;100958.66;3752840;76;108373;-76
2021/01/18 13:02:40;;;;;;;150.47;55.67;;;;;;;-4.85;75.32;100958.92;3756227;77;26450;-77
2021/01/18 13:07:51;;;;;;;133.80;54.30;;;;;;;-4.75;75.79;100961.09;3745200;76;98998;-77
2021/01/18 13:12:53;;;;;;;139.07;56.97;;;;;;;-4.69;75.41;100956.00;3757744;76;27665;-77
2021/01/18 13:17:54;;;;;;;142.53;57.67;;;;;;;-4.65;75.35;100959.00;3753641;76;98806;-78
2021/01/18 13:22:55;;;;;;;133.53;53.17;;;;;;;-4.66;75.03;100952.81;3773283;76;25935;-78
2021/01/18 13:27:57;;;;;;;154.00;61.90;;;;;;;-4.64;75.36;100952.55;3757464;76;99215;-78
2021/01/18 13:32:58;;;;;;;159.30;63.97;;;;;;;-4.56;74.51;100944.78;3708820;78;25849;-79
2021/01/18 13:37:59;;;;;;;144.28;59.90;;;;;;;-4.54;74.93;100937.81;3753879;76;98650;-79
2021/01/18 13:43:00;;;;;;;151.20;61.30;;;;;;;-4.55;74.68;100937.52;3715129;78;26345;-79
2021/01/18 13:48:02;;;;;;;155.60;63.60;;;;;;;-4.56;74.69;100950.16;3706000;78;98909;-80
2021/01/18 13:53:03;;;;;;;146.03;57.93;;;;;;;-4.52;74.78;100951.77;3709906;78;25938;-79
2021/01/18 13:58:05;;;;;;;143.17;58.37;;;;;;;-4.61;73.71;100949.31;3696260;78;98877;-78
2021/01/18 14:03:06;;;;;;;152.50;62.27;;;;;;;-4.68;74.76;100952.27;3714156;78;26443;-77
2021/01/18 14:08:07;;;;;;;141.17;54.50;;;;;;;-4.56;74.85;100946.65;3704980;78;98895;-78
2021/01/18 14:13:09;;;;;;;145.40;56.37;;;;;;;-4.74;74.39;100942.56;3712870;78;26349;-77
2021/01/18 14:18:10;;;;;;;136.73;55.17;;;;;;;-4.74;75.21;100935.06;3674168;78;99001;-78
2021/01/18 14:23:11;;;;;;;145.93;56.43;;;;;;;-4.67;74.88;100928.89;3653256;79;26382;-77
2021/01/18 14:28:13;;;;;;;149.07;56.17;;;;;;;-4.87;74.54;100931.52;3636317;79;98902;-78
2021/01/18 14:33:14;;;;;;;137.30;53.87;;;;;;;-5.04;75.13;100929.58;3637766;79;26368;-77
2021/01/18 14:38:16;;;;;;;130.13;52.17;;;;;;;-5.04;75.50;100921.00;3637018;79;99453;-78
2021/01/18 14:43:17;;;;;;;134.83;55.67;;;;;;;-5.20;75.09;100915.82;3646293;79;25988;-78
2021/01/18 14:48:19;;;;;;;162.63;61.23;;;;;;;-5.32;75.70;100913.89;3629368;78;98952;-77
2021/01/18 14:53:20;;;;;;;160.97;59.83;;;;;;;-5.33;76.19;100913.62;3637892;79;26552;-78
2021/01/18 14:58:21;;;;;;;160.93;62.60;;;;;;;-5.24;76.35;100906.16;3628685;79;98992;-80
2021/01/18 15:03:22;;;;;;;155.00;62.07;;;;;;;-5.24;76.35;100906.16;3648956;79;25925;-78
2021/01/18 15:08:25;;;;;;;155.35;61.70;;;;;;;-5.44;75.85;100913.30;3607702;79;99276;-78
2021/01/18 15:13:26;;;;;;;160.13;62.37;;;;;;;-5.65;76.49;100908.36;3644536;79;26163;-78
2021/01/18 15:18:27;;;;;;;170.03;66.23;;;;;;;-5.63;76.92;100900.86;3603796;79;98914;-78
2021/01/18 15:23:29;;;;;;;182.70;67.23;;;;;;;-5.71;76.64;100896.00;3561539;79;26569;-78
2021/01/18 15:28:30;;;;;;;190.07;71.03;;;;;;;-5.79;77.00;100896.47;3578164;81;98516;-77
2021/01/18 15:33:34;;;;;;;182.97;73.10;;;;;;;-5.83;76.94;100898.08;3571068;80;26392;-78
2021/01/18 15:38:47;;;;;;;186.77;72.63;;;;;;;-5.81;77.20;100897.30;3574163;80;99012;-78
2021/01/18 15:43:50;;;;;;;182.80;70.77;;;;;;;-5.82;76.97;100902.39;3589761;80;27504;-78
2021/01/18 15:48:52;;;;;;;197.27;73.83;;;;;;;-5.79;76.98;100898.36;3526830;81;99118;-79
2021/01/18 15:53:53;;;;;;;190.73;72.90;;;;;;;-5.87;77.23;100898.34;3558953;81;27745;-78
2021/01/18 15:58:55;;;;;;;203.57;76.87;;;;;;;-5.76;77.50;100890.61;3551837;80;98823;-79
2021/01/18 16:03:56;;;;;;;213.83;80.37;;;;;;;-5.76;76.95;100893.81;3568372;80;25918;-78
2021/01/18 16:08:57;;;;;;;202.67;76.53;;;;;;;-5.75;76.97;100882.83;3547479;81;98893;-78
2021/01/18 16:13:59;;;;;;;188.07;68.87;;;;;;;-5.78;77.06;100884.67;3568202;81;26023;-78
2021/01/18 16:19:02;;;;;;;210.43;73.63;;;;;;;-5.83;76.19;100887.36;3595115;80;98878;-78
2021/01/18 16:24:07;;;;;;;210.07;79.97;;;;;;;-5.92;77.21;100887.58;3659002;79;27700;-77
2021/01/18 16:29:10;;;;;;;199.83;77.90;;;;;;;-5.87;77.52;100878.24;3643788;79;98479;-79
2021/01/18 16:34:11;;;;;;;190.37;70.80;;;;;;;-5.88;76.76;100892.71;3649392;79;27540;-78
2021/01/18 16:39:15;;;;;;;193.80;71.73;;;;;;;-6.00;76.79;100878.67;3647842;79;98594;-78
2021/01/18 16:44:16;;;;;;;198.80;73.70;;;;;;;-6.05;77.15;100867.92;3641044;79;27474;-78
2021/01/18 16:49:18;;;;;;;235.47;85.80;;;;;;;-6.05;77.19;100867.92;3637053;78;98782;-78
2021/01/18 16:54:20;;;;;;;195.90;75.37;;;;;;;-6.12;77.44;100869.23;3652073;79;27550;-79
2021/01/18 16:59:21;;;;;;;202.40;74.53;;;;;;;-6.03;77.32;100866.33;3643797;79;98649;-79
2021/01/18 17:04:22;;;;;;;215.30;82.10;;;;;;;-6.16;76.69;100857.41;3650489;79;28217;-79
2021/01/18 17:09:26;;;;;;;231.70;89.53;;;;;;;-6.50;77.35;100862.77;3647071;79;98828;-79
2021/01/18 17:14:28;;;;;;;216.37;84.30;;;;;;;-6.43;78.13;100863.34;3650854;79;27636;-78
2021/01/18 17:19:29;;;;;;;214.23;81.13;;;;;;;-6.23;78.27;100867.54;3626530;79;98618;-79
2021/01/18 17:24:30;;;;;;;229.03;86.10;;;;;;;-6.28;77.44;100860.80;3605191;79;26175;-79
2021/01/18 17:29:33;;;;;;;232.93;90.97;;;;;;;-6.32;78.13;100861.81;3616190;79;99171;-80
2021/01/18 17:34:35;;;;;;;254.43;97.13;;;;;;;-6.23;78.12;100860.84;3613959;80;27443;-80
2021/01/18 17:39:37;;;;;;;267.00;96.00;;;;;;;-6.20;77.87;100861.66;3616028;79;98975;-80
2021/01/18 17:44:38;;;;;;;327.40;106.13;;;;;;;-6.15;78.08;100854.48;3613833;79;27682;-80
2021/01/18 17:49:39;;;;;;;260.53;96.23;;;;;;;-6.18;78.06;100843.44;3600956;79;98758;-79
2021/01/18 17:54:41;;;;;;;253.77;92.63;;;;;;;-6.08;77.98;100839.50;3605777;80;26494;-80
2021/01/18 17:59:42;;;;;;;214.80;86.67;;;;;;;-6.14;78.23;100831.16;3613481;79;99005;-81
2021/01/18 18:04:43;;;;;;;226.63;90.43;;;;;;;-6.29;77.96;100820.34;3611665;79;25847;-79
2021/01/18 18:09:45;;;;;;;217.47;82.07;;;;;;;-6.36;78.67;100805.84;3618778;79;98975;-80
2021/01/18 18:14:46;;;;;;;234.40;89.40;;;;;;;-6.33;78.76;100797.84;3618290;79;25893;-79
2021/01/18 18:19:47;;;;;;;234.47;88.87;;;;;;;-6.45;78.97;100799.34;3629022;79;98981;-79
2021/01/18 18:24:49;;;;;;;227.17;88.47;;;;;;;-6.31;79.34;100818.45;3647114;79;26399;-78
2021/01/18 18:29:50;;;;;;;234.60;89.17;;;;;;;-6.09;79.13;100796.37;3652114;79;98991;-78
2021/01/18 18:34:52;;;;;;;222.93;82.83;;;;;;;-6.01;79.04;100805.27;3654372;79;26758;-79
2021/01/18 18:39:55;;;;;;;239.57;90.30;;;;;;;-5.89;79.01;100817.93;3662340;79;98661;-80
2021/01/18 18:44:58;;;;;;;230.67;83.83;;;;;;;-5.79;78.66;100789.27;3662234;79;27549;-80
2021/01/18 18:50:00;;;;;;;230.87;84.20;;;;;;;-5.94;78.92;100801.27;3652415;78;98666;-80
2021/01/18 18:55:02;;;;;;;246.53;91.00;;;;;;;-5.86;79.19;100799.98;3642167;79;27002;-79
2021/01/18 19:00:09;;;;;;;250.37;88.50;;;;;;;-5.82;79.50;100791.17;3649768;79;98646;-80
2021/01/18 19:05:13;;;;;;;227.00;80.63;;;;;;;-5.74;79.50;100785.27;3661836;79;27538;-80
2021/01/18 19:10:14;;;;;;;210.27;79.77;;;;;;;-5.68;79.45;100775.39;3656885;79;99002;-79
2021/01/18 19:15:16;;;;;;;215.70;82.30;;;;;;;-5.67;79.92;100763.59;3664853;79;25848;-80
2021/01/18 19:20:17;;;;;;;230.87;81.50;;;;;;;-5.61;80.03;100755.32;3665402;78;99549;-80
2021/01/18 19:25:19;;;;;;;219.60;79.80;;;;;;;-5.48;80.21;100752.66;3643419;78;27547;-80
2021/01/18 19:30:22;;;;;;;228.10;77.97;;;;;;;-5.44;80.11;100740.34;3630975;78;99014;-80
2021/01/18 19:35:23;;;;;;;207.87;75.77;;;;;;;-5.40;80.46;100732.05;3645422;79;27459;-80
2021/01/18 19:40:25;;;;;;;224.93;83.40;;;;;;;-5.44;80.63;100729.09;3641076;77;98589;-80
2021/01/18 19:45:26;;;;;;;209.37;81.40;;;;;;;-5.43;81.01;100712.45;3645506;79;26475;-80
2021/01/18 19:50:28;;;;;;;215.73;83.40;;;;;;;-5.40;81.11;100718.63;3641877;79;98836;-80
2021/01/18 19:55:29;;;;;;;211.53;75.27;;;;;;;-5.25;81.24;100715.43;3646582;78;27469;-80
2021/01/18 20:00:30;;;;;;;212.60;83.33;;;;;;;-5.31;81.27;100708.45;3645833;77;98724;-80
2021/01/18 20:05:32;;;;;;;184.40;73.83;;;;;;;-5.33;81.68;100704.42;3634352;79;26537;-79
2021/01/18 20:10:33;;;;;;;227.63;85.27;;;;;;;-5.22;81.46;100700.67;3637362;78;98933;-80
2021/01/18 20:15:34;;;;;;;241.00;86.93;;;;;;;-5.24;81.51;100702.84;3643797;78;25899;-79
2021/01/18 20:20:36;;;;;;;237.40;84.47;;;;;;;-5.21;81.81;100696.92;3666806;78;98976;-80
2021/01/18 20:25:39;;;;;;;227.80;82.83;;;;;;;-5.21;81.81;100688.34;3704249;78;26414;-79
2021/01/18 20:30:40;;;;;;;215.50;81.03;;;;;;;-5.13;81.93;100678.97;3695557;78;101391;-79
2021/01/18 20:35:42;;;;;;;206.50;79.73;;;;;;;-5.16;82.13;100681.64;3704420;78;26200;-80
2021/01/18 20:40:43;;;;;;;214.40;81.90;;;;;;;-5.09;82.30;100661.23;3697279;77;98568;-80
2021/01/18 20:45:45;;;;;;;218.60;78.97;;;;;;;-5.13;82.28;100657.50;3699175;78;26485;-80
2021/01/18 20:50:46;;;;;;;226.63;85.13;;;;;;;-5.10;82.62;100649.72;3764990;77;98604;-79
2021/01/18 20:55:48;;;;;;;199.60;77.67;;;;;;;-5.02;82.82;100643.80;3767236;76;25889;-78
2021/01/18 21:00:49;;;;;;;204.23;80.60;;;;;;;-4.98;82.82;100631.98;3765208;76;98626;-78
2021/01/18 21:05:51;;;;;;;204.80;79.97;;;;;;;-4.92;82.87;100624.22;3772027;76;26638;-79
2021/01/18 21:10:53;;;;;;;233.83;90.00;;;;;;;-4.97;82.91;100621.54;3700068;77;98728;-79
2021/01/18 21:15:54;;;;;;;206.77;78.00;;;;;;;-4.98;83.44;100618.04;3767811;76;27600;-79
2021/01/18 21:20:55;;;;;;;227.80;82.37;;;;;;;-4.93;83.56;100609.98;3774924;77;99017;-79
2021/01/18 21:25:57;;;;;;;201.23;75.40;;;;;;;-4.81;83.61;100608.36;3670520;79;25992;-79
2021/01/18 21:30:58;;;;;;;220.07;84.80;;;;;;;-4.79;84.24;100598.97;3673283;79;98934;-79
2021/01/18 21:35:59;;;;;;;195.90;71.83;;;;;;;-4.76;83.85;100588.22;3680013;79;25944;-80
2021/01/18 21:41:00;;;;;;;215.53;82.23;;;;;;;-4.70;83.71;100586.57;3664315;78;98947;-80
2021/01/18 21:46:01;;;;;;;197.37;75.57;;;;;;;-4.70;83.71;100586.57;3674044;79;26791;-80
2021/01/18 21:51:02;;;;;;;197.03;75.33;;;;;;;-4.62;83.92;100579.31;3662851;79;98736;-79
2021/01/18 21:56:04;;;;;;;214.37;83.80;;;;;;;-4.57;84.02;100575.80;3676492;79;26009;-80
2021/01/18 22:01:06;;;;;;;199.40;77.50;;;;;;;-4.51;84.00;100570.67;3670002;79;98464;-80
2021/01/18 22:06:07;;;;;;;210.30;78.40;;;;;;;-4.39;84.23;100562.56;3659834;79;26424;-79
2021/01/18 22:11:08;;;;;;;204.80;75.67;;;;;;;-4.38;84.16;100555.30;3676540;79;98660;-80
2021/01/18 22:16:10;;;;;;;188.63;71.50;;;;;;;-4.32;84.46;100550.97;3674578;79;26165;-81
2021/01/18 22:21:11;;;;;;;184.90;70.90;;;;;;;-4.34;84.46;100546.95;3661332;79;98596;-81
2021/01/18 22:26:12;;;;;;;187.87;71.97;;;;;;;-4.25;84.58;100538.03;3655403;79;26076;-81
2021/01/18 22:31:13;;;;;;;195.45;72.67;;;;;;;-4.22;84.65;100528.09;3655085;79;98839;-81
2021/01/18 22:36:14;;;;;;;183.63;70.90;;;;;;;-4.25;84.83;100529.19;3658185;79;26440;-83
2021/01/18 22:41:15;;;;;;;168.70;68.33;;;;;;;-4.19;84.94;100516.80;3656303;79;98643;-82